Latest Weather Observations for Lake Macquarie - Cooranbong

IDN60901

Issued at 11:55 pm EST Tuesday 2 September 2014 (issued every 10 minutes, with the page automatically refreshed every 10 minutes)

About weather observations | Map of Sydney area stations | Latest observations for Sydney area | Other Formats
Station Details ID: 061412 Name: LAKE MACQUARIE AWS Lat: -33.09 Lon: 151.46 Height: 6.0 m
Data from the previous 72 hours. | See also: Recent months at Lake Macquarie - Cooranbong
Date/Time
EST
Tmp

°C
App
Tmp
°C
Dew
Point
°C
Rel
Hum
%
Delta-T

°C
Wind Press
QNH
hPa
Press
MSL
hPa
Rain
since
9 am
mm
Dir
 
Spd
km/h
Gust
km/h
Spd
kts
Gust
kts
02/11:30pm 9.4 5.5 5.4 76 1.8 WSW 15 26 8 14 1011.6 - 11.8
02/11:00pm 9.5 5.4 6.0 79 1.6 WSW 17 37 9 20 1011.8 1011.8 11.8
02/10:30pm 10.4 6.2 5.6 72 2.2 WSW 17 32 9 17 1011.7 - 11.4
02/10:00pm 11.8 7.8 4.8 62 3.2 SW 15 35 8 19 1011.5 1011.5 11.4
02/09:30pm 12.2 8.6 4.9 61 3.3 WSW 13 24 7 13 1011.2 - 11.4
02/09:00pm 11.9 9.2 5.5 65 3.0 W 9 17 5 9 1011.0 1011.0 11.4
02/08:30pm 11.5 8.9 6.0 69 2.6 W 9 20 5 11 1010.9 - 11.4
02/08:00pm 10.8 8.9 6.9 77 1.8 WSW 6 9 3 5 1010.8 1010.8 11.4
02/07:30pm 11.5 9.3 6.4 71 2.4 WSW 7 19 4 10 1010.5 - 11.4
02/07:00pm 11.6 9.2 6.9 73 2.2 W 9 17 5 9 1010.3 1010.3 11.4
02/06:30pm 11.1 9.3 8.0 81 1.5 WSW 7 13 4 7 1010.2 - 11.4
02/06:00pm 10.1 9.4 8.7 91 0.7 WSW 2 7 1 4 1010.0 1010.0 11.4
02/05:30pm 10.9 9.3 8.1 83 1.4 WSW 6 13 3 7 1009.9 - 11.2
02/05:00pm 10.2 8.5 8.5 89 0.8 WSW 7 24 4 13 1009.6 1009.6 11.2
02/04:30pm 13.5 13.4 12.1 91 0.8 NNW 4 7 2 4 1009.1 - 4.8
02/04:00pm 13.9 13.6 11.6 86 1.2 E 4 7 2 4 1007.8 1007.8 4.4
02/03:30pm 14.6 14.3 12.6 88 1.1 S 6 9 3 5 1007.8 - 4.4
02/03:00pm 15.7 15.7 11.1 74 2.5 E 2 4 1 2 1007.5 1007.5 3.0
02/02:30pm 15.3 15.4 11.5 78 2.0 NE 2 4 1 2 1007.6 - 3.0
02/02:00pm 13.7 13.4 11.6 87 1.1 E 4 6 2 3 1007.9 1007.9 3.0
02/01:30pm 13.5 13.1 11.2 86 1.2 SSE 4 7 2 4 1007.9 - 3.0
02/01:00pm 12.7 12.6 10.9 89 0.9 N 2 7 1 4 1007.8 1007.8 3.0
02/12:30pm 12.0 11.4 10.4 90 0.8 N 4 6 2 3 1008.0 - 3.0
02/12:00pm 13.3 10.5 8.6 73 2.4 WNW 13 24 7 13 1008.7 1008.7 1.4
02/11:30am 15.4 14.9 10.6 73 2.5 SW 4 7 2 4 1008.1 - 0.0
02/11:00am 15.2 14.1 10.0 71 2.7 NW 6 9 3 5 1008.9 1008.9 0.0
02/10:30am 14.4 14.6 10.4 77 2.1 CALM 0 0 0 0 1009.2 - 0.0
02/10:00am 14.7 14.8 10.3 75 2.3 CALM 0 0 0 0 1009.5 1009.5 0.0
02/09:30am 14.8 14.9 11.4 80 1.8 N 2 4 1 2 1009.7 - 0.0
02/09:00am 13.8 14.1 10.8 82 1.6 CALM 0 0 0 0 1009.9 1009.9 0.0
02/08:30am 13.8 13.9 10.0 78 2.0 CALM 0 2 0 1 1010.2 - 0.0
02/08:00am 14.3 14.1 9.1 71 2.7 CALM 0 0 0 0 1010.1 1010.1 0.0
02/07:30am 15.9 14.0 7.4 57 4.2 W 7 15 4 8 1010.1 - 0.0
02/07:00am 14.6 13.2 8.8 68 2.9 SW 6 11 3 6 1010.3 1010.3 0.0
02/06:30am 11.2 11.3 10.3 94 0.5 CALM 0 4 0 2 1009.6 - 0.0
02/06:00am 11.0 11.1 10.1 94 0.5 CALM 0 0 0 0 1009.3 1009.3 0.0
02/05:30am 11.1 11.2 10.2 94 0.5 CALM 0 0 0 0 1008.9 - 0.0
02/05:00am 10.9 11.0 10.0 94 0.5 CALM 0 0 0 0 1008.3 1008.3 0.0
02/04:30am 11.1 11.2 10.2 94 0.5 CALM 0 0 0 0 1008.3 - 0.0
02/04:00am 11.0 11.1 10.1 94 0.5 CALM 0 0 0 0 1008.2 1008.2 0.0
02/03:30am 11.0 11.0 9.9 93 0.6 CALM 0 0 0 0 1008.5 - 0.0
02/03:00am 11.0 11.0 9.9 93 0.6 CALM 0 0 0 0 1008.8 1008.8 0.0
02/02:30am 11.1 11.1 9.9 92 0.6 CALM 0 0 0 0 1009.2 - 0.0
02/02:00am 11.2 11.2 9.8 91 0.7 CALM 0 0 0 0 1009.5 1009.5 0.0
02/01:30am 11.3 11.4 10.0 92 0.7 CALM 0 0 0 0 1010.1 - 0.0
02/01:00am 11.3 11.3 9.9 91 0.7 CALM 0 0 0 0 1010.5 1010.5 0.0
02/12:30am 11.6 11.7 10.2 91 0.7 CALM 0 0 0 0 1010.8 - 0.0
02/12:00am 11.9 12.0 10.3 90 0.8 N 0 0 0 0 1011.2 1011.2 0.0
 
Date/Time
EST
Tmp

°C
App
Tmp
°C
Dew
Point
°C
Rel
Hum
%
Delta-T

°C
Wind Press
QNH
hPa
Press
MSL
hPa
Rain
since
9 am
mm
Dir
 
Spd
km/h
Gust
km/h
Spd
kts
Gust
kts
01/11:30pm 12.4 11.8 10.3 87 1.1 N 4 7 2 4 1011.7 - 0.0
01/11:00pm 13.5 12.5 10.3 81 1.7 NNW 6 11 3 6 1011.8 1011.8 0.0
01/10:30pm 11.7 11.8 10.1 90 0.8 CALM 0 0 0 0 1012.1 - 0.0
01/10:00pm 11.9 12.1 10.5 91 0.7 CALM 0 0 0 0 1012.4 1012.4 0.0
01/09:30pm 11.9 12.1 10.6 92 0.7 CALM 0 0 0 0 1012.6 - 0.0
01/09:00pm 11.9 12.1 10.6 92 0.7 CALM 0 0 0 0 1012.9 1012.9 0.0
01/08:30pm 11.9 12.1 10.5 91 0.7 CALM 0 0 0 0 1012.9 - 0.0
01/08:00pm 12.7 13.0 10.9 89 0.9 CALM 0 0 0 0 1012.8 1012.8 0.0
01/07:30pm 13.4 13.7 10.8 84 1.4 CALM 0 0 0 0 1012.5 - 0.0
01/07:00pm 14.5 14.9 11.1 80 1.8 CALM 0 0 0 0 1012.2 1012.2 0.0
01/06:30pm 15.4 15.7 11.0 75 2.3 CALM 0 4 0 2 1011.9 - 0.0
01/06:00pm 16.9 17.0 10.3 65 3.5 CALM 0 0 0 0 1011.7 1011.7 0.0
01/05:30pm 18.2 18.4 10.6 61 4.1 CALM 0 2 0 1 1011.5 - 0.0
01/05:00pm 20.1 19.1 8.8 48 5.9 N 4 7 2 4 1011.6 1011.6 0.0
01/04:30pm 21.7 19.9 7.2 39 7.5 N 6 9 3 5 1011.5 - 0.0
01/04:00pm 22.4 20.5 7.4 38 7.8 NNW 7 13 4 7 1011.4 1011.4 0.0
01/03:30pm 22.4 20.0 7.0 37 7.9 NNW 9 19 5 10 1011.5 - 0.0
01/03:00pm 22.7 20.2 8.0 39 7.7 N 11 19 6 10 1011.7 1011.7 0.0
01/02:30pm 22.5 20.5 7.1 37 7.9 NNW 7 15 4 8 1011.9 - 0.0
01/02:00pm 22.3 19.8 8.1 40 7.5 N 11 20 6 11 1012.5 1012.5 0.0
01/01:30pm 23.6 21.5 8.1 37 8.2 NW 9 19 5 10 1013.0 - 0.0
01/01:00pm 23.3 21.2 6.6 34 8.6 NNW 7 17 4 9 1013.3 1013.3 0.0
01/12:30pm 22.8 19.9 4.8 31 8.9 NW 9 17 5 9 1013.8 - 0.0
01/12:00pm 22.7 20.8 7.7 38 7.8 NW 7 15 4 8 1014.3 1014.3 0.0
01/11:30am 22.4 19.0 5.8 34 8.4 WNW 13 20 7 11 1014.8 - 0.0
01/11:00am 21.8 19.1 7.2 39 7.5 WNW 11 20 6 11 1015.4 1015.4 0.0
01/10:30am 21.3 19.2 8.2 43 6.8 NNW 9 20 5 11 1015.9 - 0.0
01/10:00am 20.4 19.0 9.6 50 5.8 N 7 11 4 6 1016.6 1016.6 0.0
01/09:30am 19.0 18.2 11.1 60 4.3 N 6 9 3 5 1017.2 - 0.0
01/09:00am 17.3 17.9 13.0 76 2.4 NE 2 7 1 4 1017.4 1017.4 0.0
01/08:30am 13.9 14.6 12.1 89 1.0 CALM 0 0 0 0 1017.7 - 0.0
01/08:00am 10.7 10.8 10.2 97 0.3 CALM 0 0 0 0 1017.6 1017.6 0.0
01/07:30am 8.5 8.1 8.2 98 0.1 CALM 0 0 0 0 1017.5 - 0.0
01/07:00am 6.2 5.2 5.8 97 0.2 CALM 0 0 0 0 1017.5 1017.5 0.0
01/06:30am 5.8 4.8 5.4 97 0.2 CALM 0 0 0 0 1017.4 - 0.0
01/06:00am 5.8 4.7 5.2 96 0.3 CALM 0 0 0 0 1017.2 1017.2 0.0
01/05:30am 6.1 5.1 5.5 96 0.3 CALM 0 0 0 0 1017.0 - 0.0
01/05:00am 6.4 5.4 5.8 96 0.3 CALM 0 0 0 0 1016.7 1016.7 0.0
01/04:30am 6.6 5.7 6.0 96 0.3 CALM 0 0 0 0 1016.5 - 0.0
01/04:00am 6.8 5.9 6.2 96 0.3 CALM 0 0 0 0 1016.3 1016.3 0.0
01/03:30am 7.0 6.2 6.4 96 0.3 CALM 0 0 0 0 1016.4 - 0.0
01/03:00am 7.3 6.5 6.7 96 0.3 CALM 0 0 0 0 1016.5 1016.5 0.0
01/02:30am 7.7 7.0 7.1 96 0.3 CALM 0 0 0 0 1016.9 - 0.0
01/02:00am 7.8 7.2 7.2 96 0.3 CALM 0 0 0 0 1017.2 1017.2 0.0
01/01:30am 8.0 7.4 7.4 96 0.3 CALM 0 0 0 0 1017.5 - 0.0
01/01:00am 8.4 7.8 7.6 95 0.4 CALM 0 0 0 0 1017.8 1017.8 0.0
01/12:30am 8.8 8.4 8.2 96 0.3 CALM 0 0 0 0 1017.9 - 0.0
01/12:00am 9.3 9.0 8.7 96 0.3 CALM 0 0 0 0 1018.1 1018.1 0.0
 
Date/Time
EST
Tmp

°C
App
Tmp
°C
Dew
Point
°C
Rel
Hum
%
Delta-T

°C
Wind Press
QNH
hPa
Press
MSL
hPa
Rain
since
9 am
mm
Dir
 
Spd
km/h
Gust
km/h
Spd
kts
Gust
kts
31/11:30pm 9.5 9.2 8.7 95 0.4 CALM 0 0 0 0 1018.2 - 0.0
31/11:00pm 9.5 9.2 8.7 95 0.4 CALM 0 0 0 0 1018.5 1018.5 0.0
31/10:30pm 9.8 9.6 9.0 95 0.4 CALM 0 0 0 0 1018.4 - 0.0
31/10:00pm 9.9 9.7 9.1 95 0.4 CALM 0 0 0 0 1018.6 1018.6 0.0
31/09:30pm 9.9 9.7 9.0 94 0.4 CALM 0 0 0 0 1018.5 - 0.0
31/09:00pm 10.6 10.5 9.5 93 0.5 CALM 0 0 0 0 1018.7 1018.7 0.0
31/08:30pm 11.1 11.1 9.9 92 0.6 CALM 0 0 0 0 1018.6 - 0.0
31/08:00pm 11.4 11.5 10.1 92 0.7 CALM 0 0 0 0 1018.5 1018.5 0.0
31/07:30pm 11.9 12.1 10.5 91 0.7 CALM 0 0 0 0 1018.4 - 0.0
31/07:00pm 12.4 12.6 10.6 89 0.9 CALM 0 0 0 0 1018.2 1018.2 0.0
31/06:30pm 13.5 13.8 11.0 85 1.3 CALM 0 0 0 0 1018.0 - 0.0
31/06:00pm 14.4 14.7 11.0 80 1.8 CALM 0 0 0 0 1017.7 1017.7 0.0
31/05:30pm 16.2 16.1 10.9 71 2.8 ESE 2 4 1 2 1017.6 - 0.0
31/05:00pm 17.5 16.7 11.1 66 3.4 ESE 6 9 3 5 1017.6 1017.6 0.0
31/04:30pm 18.5 17.4 10.8 61 4.2 E 7 13 4 7 1017.3 - 0.0
31/04:00pm 19.2 17.9 11.3 60 4.3 E 9 15 5 8 1017.3 1017.3 0.0
31/03:30pm 19.2 18.3 11.5 61 4.2 E 7 11 4 6 1017.3 - 0.0
31/03:00pm 20.0 18.6 11.0 56 4.9 E 9 17 5 9 1017.2 1017.2 0.0
31/02:30pm 19.7 18.8 9.3 51 5.5 S 4 9 2 5 1017.5 - 0.0
31/02:00pm 20.1 18.8 9.1 49 5.8 S 6 9 3 5 1017.7 1017.7 0.0
31/01:30pm 19.9 18.3 8.9 49 5.8 WSW 7 13 4 7 1018.1 - 0.0
31/01:00pm 18.9 17.7 9.7 55 4.9 SSW 6 11 3 6 1018.6 1018.6 0.0
31/12:30pm 19.9 18.7 9.5 51 5.5 SW 6 11 3 6 1019.0 - 0.0
31/12:00pm 18.4 17.4 10.3 59 4.3 SW 6 11 3 6 1019.5 1019.5 0.0
31/11:30am 19.0 18.5 10.8 59 4.4 WSW 4 9 2 5 1019.8 - 0.0
31/11:00am 18.7 17.8 10.8 60 4.3 WSW 6 11 3 6 1020.1 1020.1 0.0
31/10:30am 18.2 16.6 10.3 60 4.2 WSW 9 22 5 12 1020.4 - 0.0
31/10:00am 18.2 17.1 10.8 62 4.0 SW 7 17 4 9 1020.8 1020.8 0.0
31/09:30am 17.5 16.4 10.6 64 3.7 SSW 7 19 4 10 1020.9 - 0.0
31/09:00am 16.6 14.9 10.0 65 3.5 WSW 9 19 5 10 1021.0 1021.0 0.2
31/08:30am 16.1 14.5 10.2 68 3.1 SW 9 15 5 8 1021.3 - 0.2
31/08:00am 15.5 14.4 10.1 70 2.8 WSW 6 11 3 6 1021.1 1021.1 0.2
31/07:30am 14.4 13.7 10.2 76 2.2 WSW 4 7 2 4 1020.8 - 0.2
31/07:00am 11.5 11.4 9.6 88 1.0 CALM 0 4 0 2 1020.8 1020.8 0.2
31/06:30am 11.6 11.4 9.0 84 1.3 CALM 0 2 0 1 1020.6 - 0.2
31/06:00am 12.5 12.1 9.7 83 1.4 WSW 2 6 1 3 1020.4 1020.4 0.2
31/05:30am 13.0 12.6 9.8 81 1.6 WSW 2 6 1 3 1020.1 - 0.2
31/05:00am 13.6 12.6 10.2 80 1.8 W 6 11 3 6 1020.1 1020.1 0.2
31/04:30am 13.5 12.3 10.3 81 1.7 W 7 11 4 6 1020.1 - 0.2
31/04:00am 13.6 12.7 10.6 82 1.6 W 6 11 3 6 1020.1 1020.1 0.2
31/03:30am 13.6 13.2 11.0 84 1.4 WSW 4 9 2 5 1020.3 - 0.2
31/03:00am 13.6 13.1 10.8 83 1.5 WSW 4 9 2 5 1020.3 1020.3 0.2
31/02:30am 13.6 12.7 10.8 83 1.5 WSW 6 9 3 5 1020.5 - 0.2
31/02:00am 13.9 12.8 10.5 80 1.8 SW 7 17 4 9 1020.6 1020.6 0.2
31/01:30am 13.9 12.4 10.5 80 1.8 WSW 9 20 5 11 1020.8 - 0.2
31/01:00am 13.9 12.8 10.5 80 1.8 SW 7 20 4 11 1020.9 1020.9 0.2
31/12:30am 14.1 13.0 10.5 79 1.9 SW 7 17 4 9 1021.1 - 0.2
31/12:00am 14.2 13.3 10.6 79 1.9 WSW 6 11 3 6 1021.3 1021.3 0.2

Latest Capital City Observations: Canberra | Sydney | Melbourne | Brisbane | Adelaide | Perth | Hobart | Darwin

Other Formats:

Comma delimited format used in spreadsheet applications
http://www.bom.gov.au/fwo/IDN60901/IDN60901.95767.axf

JavaScript Object Notation format (JSON) in row-major order
http://www.bom.gov.au/fwo/IDN60901/IDN60901.95767.json